Terminal Aerodrome Forecast
Issued by NWS

Current Version | Previous Version | Graphics & Text | Print | Product List | Glossary On
Versions: 1 2 3 4 5 6 7 8 9 10 11 12 13 14 15 16 17 18 19
000
FTUS41 KILN 231504 AAA
TAFLUK
TAF AMD
KLUK 231504Z 2315/2412 13004KT P6SM -RA BKN045 OVC060
     FM231800 10012G20KT 5SM -SHRA OVC025
     FM240000 09008KT P6SM VCSH OVC025=

USA.gov is the U.S. government's official web portal to all federal, state and local government web resources and services.